createdAt,value
2019-01-17T00:00:31.555Z,10.53
2019-01-17T00:03:02.632Z,9.93
2019-01-17T00:05:30.577Z,10.10
2019-01-17T00:07:58.528Z,8.07
2019-01-17T00:10:38.195Z,6.97
2019-01-17T00:13:08.919Z,6.37
2019-01-17T00:15:53.539Z,5.70
2019-01-17T00:18:38.380Z,5.10
2019-01-17T00:21:15.163Z,4.90
2019-01-17T00:23:55.134Z,5.20
2019-01-17T00:26:26.139Z,4.43
2019-01-17T00:28:57.068Z,4.40
2019-01-17T00:31:31.455Z,3.83
2019-01-17T00:34:14.257Z,3.57
2019-01-17T00:36:54.577Z,3.53
2019-01-17T00:39:25.047Z,3.20
2019-01-17T00:42:04.797Z,3.20
2019-01-17T00:44:47.815Z,3.03
2019-01-17T00:47:15.752Z,3.23
2019-01-17T00:50:00.345Z,3.50
2019-01-17T00:52:28.283Z,3.50
2019-01-17T00:55:12.830Z,3.40
2019-01-17T00:57:40.779Z,3.07
2019-01-17T01:00:29.453Z,3.47
2019-01-17T01:03:03.355Z,2.97
2019-01-17T01:05:37.152Z,3.03
2019-01-17T01:08:21.464Z,2.77
2019-01-17T01:10:55.503Z,2.53
2019-01-17T01:13:32.543Z,2.70
2019-01-17T01:16:07.091Z,2.90
2019-01-17T01:18:44.055Z,2.60
2019-01-17T01:21:18.063Z,2.67
2019-01-17T01:23:57.795Z,2.57
2019-01-17T01:26:31.856Z,2.70
2019-01-17T01:29:05.443Z,2.60
2019-01-17T01:31:36.194Z,2.87
2019-01-17T01:34:27.201Z,2.90
2019-01-17T01:36:58.031Z,3.23
2019-01-17T01:39:28.772Z,3.10
2019-01-17T01:41:56.823Z,3.00
2019-01-17T01:44:27.792Z,3.37
2019-01-17T01:46:58.287Z,3.40
2019-01-17T01:49:41.303Z,2.93
2019-01-17T01:52:09.250Z,3.67
2019-01-17T01:54:35.292Z,3.53
2019-01-17T01:57:01.349Z,3.43
2019-01-17T01:59:27.389Z,3.33
2019-01-17T02:01:53.451Z,3.43
2019-01-17T02:04:19.818Z,3.50
2019-01-17T02:06:45.853Z,3.70
2019-01-17T02:09:11.930Z,4.07
2019-01-17T02:11:38.052Z,3.67
2019-01-17T02:14:05.408Z,4.47
2019-01-17T02:16:31.777Z,4.77
2019-01-17T02:18:57.839Z,4.20
2019-01-17T02:21:23.882Z,4.07
2019-01-17T02:23:49.927Z,4.40
2019-01-17T02:26:15.985Z,4.57
2019-01-17T02:28:42.018Z,4.80
2019-01-17T02:31:08.638Z,4.80
2019-01-17T02:33:34.696Z,4.63
2019-01-17T02:36:00.750Z,4.70
2019-01-17T02:38:26.883Z,4.60
2019-01-17T02:40:52.954Z,5.60
2019-01-17T02:43:19.360Z,5.00
2019-01-17T02:45:45.406Z,4.97
2019-01-17T02:48:11.815Z,5.13
2019-01-17T02:50:37.868Z,4.80
2019-01-17T02:53:04.105Z,4.97
2019-01-17T02:55:30.508Z,5.13
2019-01-17T02:57:56.544Z,4.97
2019-01-17T03:00:22.596Z,4.97
2019-01-17T03:02:48.652Z,5.37
2019-01-17T03:05:14.697Z,4.87
2019-01-17T03:07:40.943Z,5.10
2019-01-17T03:10:10.703Z,5.20
2019-01-17T03:12:36.747Z,5.57
2019-01-17T03:15:05.444Z,5.70
2019-01-17T03:17:31.508Z,5.70
2019-01-17T03:19:57.545Z,5.30
2019-01-17T03:22:23.587Z,5.33
2019-01-17T03:24:49.663Z,5.53
2019-01-17T03:27:15.709Z,5.30
2019-01-17T03:29:41.756Z,5.57
2019-01-17T03:32:07.826Z,5.87
2019-01-17T03:34:33.860Z,5.47
2019-01-17T03:36:59.900Z,5.67
2019-01-17T03:39:25.963Z,5.20
2019-01-17T03:41:52.312Z,5.27
2019-01-17T03:44:18.348Z,5.80
2019-01-17T03:46:44.405Z,5.47
2019-01-17T03:49:10.449Z,5.20
2019-01-17T03:51:36.920Z,5.87
2019-01-17T03:54:03.185Z,5.17
2019-01-17T03:56:29.220Z,5.70
2019-01-17T03:58:55.259Z,5.80
2019-01-17T04:01:21.319Z,6.40
2019-01-17T04:03:47.377Z,6.43
2019-01-17T04:06:13.419Z,6.60
2019-01-17T04:08:39.469Z,6.70
2019-01-17T04:11:05.861Z,7.40
2019-01-17T04:13:31.904Z,8.23
2019-01-17T04:15:57.944Z,7.83
2019-01-17T04:18:23.999Z,9.17
2019-01-17T04:20:50.323Z,9.83
2019-01-17T04:23:16.376Z,9.80
2019-01-17T04:25:42.677Z,9.57
2019-01-17T04:28:08.733Z,9.70
2019-01-17T04:30:34.771Z,10.30
2019-01-17T04:33:00.807Z,11.07
2019-01-17T04:35:26.871Z,11.60
2019-01-17T04:37:52.916Z,11.63
2019-01-17T04:40:18.964Z,11.90
2019-01-17T04:42:45.025Z,11.87
2019-01-17T04:45:30.953Z,13.40
2019-01-17T04:47:57.556Z,12.60
2019-01-17T04:50:23.598Z,13.90
2019-01-17T04:52:49.640Z,13.53
2019-01-17T04:55:16.147Z,13.83
2019-01-17T04:57:42.187Z,14.00
2019-01-17T05:00:14.270Z,13.40
2019-01-17T05:02:40.320Z,12.97
2019-01-17T05:05:06.872Z,13.87
2019-01-17T05:07:32.925Z,12.63
2019-01-17T05:09:59.003Z,13.93
2019-01-17T05:12:25.040Z,13.60
2019-01-17T05:14:51.075Z,13.70
2019-01-17T05:17:17.135Z,13.63
2019-01-17T05:19:43.184Z,14.60
2019-01-17T05:22:09.473Z,15.57
2019-01-17T05:24:35.535Z,14.67
2019-01-17T05:27:01.956Z,14.67
2019-01-17T05:29:28.010Z,15.77
2019-01-17T05:31:54.069Z,16.47
2019-01-17T05:34:20.107Z,16.20
2019-01-17T05:36:46.414Z,18.30
2019-01-17T05:39:12.472Z,18.03
2019-01-17T05:41:38.551Z,17.77
2019-01-17T05:44:04.600Z,16.37
2019-01-17T05:46:30.639Z,17.03
2019-01-17T05:48:56.699Z,16.07
2019-01-17T05:51:22.739Z,15.27
2019-01-17T05:53:48.786Z,16.80
2019-01-17T05:56:14.855Z,16.40
2019-01-17T05:58:40.910Z,15.87
2019-01-17T06:01:06.956Z,16.40
2019-01-17T06:03:33.007Z,16.87
2019-01-17T06:05:59.047Z,14.93
2019-01-17T06:08:25.091Z,16.40
2019-01-17T06:10:51.144Z,15.40
2019-01-17T06:13:17.486Z,15.97
2019-01-17T06:15:44.043Z,16.20
2019-01-17T06:18:10.340Z,15.53
2019-01-17T06:20:36.388Z,16.07
2019-01-17T06:23:02.813Z,15.80
2019-01-17T06:25:28.855Z,18.07
2019-01-17T06:27:54.896Z,18.20
2019-01-17T06:30:20.956Z,17.20
2019-01-17T06:32:47.305Z,18.73
2019-01-17T06:35:13.547Z,18.73
2019-01-17T06:37:39.604Z,18.67
2019-01-17T06:40:09.775Z,17.90
2019-01-17T06:42:37.534Z,17.30
2019-01-17T06:45:04.692Z,19.80
2019-01-17T06:47:30.745Z,19.00
2019-01-17T06:49:56.791Z,18.67
2019-01-17T06:52:22.974Z,17.10
2019-01-17T06:54:49.013Z,19.33
2019-01-17T06:57:15.055Z,19.40
2019-01-17T06:59:41.149Z,19.90
2019-01-17T07:02:07.184Z,19.53
2019-01-17T07:04:33.602Z,20.87
2019-01-17T07:06:59.656Z,19.17
2019-01-17T07:09:25.707Z,18.57
2019-01-17T07:11:51.825Z,18.93
2019-01-17T07:14:17.874Z,18.50
2019-01-17T07:16:44.217Z,18.67
2019-01-17T07:19:10.288Z,18.40
2019-01-17T07:21:36.333Z,18.60
2019-01-17T07:24:02.886Z,17.90
2019-01-17T07:26:29.239Z,17.77
2019-01-17T07:28:55.566Z,16.63
2019-01-17T07:31:21.601Z,17.40
2019-01-17T07:33:47.664Z,17.40
2019-01-17T07:36:13.722Z,17.33
2019-01-17T07:38:39.767Z,16.80
2019-01-17T07:41:05.839Z,17.03
2019-01-17T07:43:31.898Z,17.30
2019-01-17T07:45:57.951Z,16.07
2019-01-17T07:48:23.991Z,15.97
2019-01-17T07:50:50.216Z,17.40
2019-01-17T07:53:16.311Z,16.40
2019-01-17T07:55:47.621Z,17.13
2019-01-17T07:58:10.592Z,16.83
2019-01-17T08:00:36.667Z,17.37
2019-01-17T08:03:03.012Z,17.20
2019-01-17T08:05:29.168Z,17.30
2019-01-17T08:07:55.224Z,16.50
2019-01-17T08:10:21.264Z,15.80
2019-01-17T08:12:48.071Z,16.87
2019-01-17T08:15:15.027Z,16.00
2019-01-17T08:17:41.190Z,15.53
2019-01-17T08:20:13.508Z,15.57
2019-01-17T08:22:39.565Z,15.27
2019-01-17T08:25:08.532Z,14.33
2019-01-17T08:27:34.598Z,13.97
2019-01-17T08:30:00.651Z,14.67
2019-01-17T08:32:26.695Z,15.77
2019-01-17T08:34:52.820Z,15.93
2019-01-17T08:37:18.863Z,15.07
2019-01-17T08:39:44.912Z,14.73
2019-01-17T08:42:10.972Z,13.57
2019-01-17T08:44:37.330Z,13.77
2019-01-17T08:47:03.480Z,14.30
2019-01-17T08:49:29.644Z,13.50
2019-01-17T08:51:55.693Z,13.33
2019-01-17T08:54:21.747Z,13.50
2019-01-17T08:56:47.888Z,13.60
2019-01-17T08:59:14.396Z,15.07
2019-01-17T09:01:40.439Z,12.47
2019-01-17T09:04:06.531Z,14.40
2019-01-17T09:06:32.567Z,14.00
2019-01-17T09:08:58.992Z,15.37
2019-01-17T09:11:25.325Z,15.07
2019-01-17T09:13:51.651Z,13.37
2019-01-17T09:16:17.691Z,13.93
2019-01-17T09:18:43.753Z,13.97
2019-01-17T09:21:09.788Z,15.27
2019-01-17T09:23:35.888Z,15.63
2019-01-17T09:26:07.535Z,16.43
2019-01-17T09:28:30.247Z,17.13
2019-01-17T09:30:56.287Z,15.40
2019-01-17T09:33:22.370Z,16.73
2019-01-17T09:35:48.576Z,18.27
2019-01-17T09:38:14.629Z,17.73
2019-01-17T09:40:40.696Z,18.37
2019-01-17T09:43:06.763Z,15.57
2019-01-17T09:45:33.128Z,13.97
2019-01-17T09:47:59.272Z,14.30
2019-01-17T09:50:25.345Z,11.90
2019-01-17T09:52:51.484Z,11.30
2019-01-17T09:55:17.560Z,10.50
2019-01-17T09:57:43.956Z,10.40
2019-01-17T10:00:18.921Z,10.57
2019-01-17T10:02:45.069Z,9.37
2019-01-17T10:05:11.141Z,8.57
2019-01-17T10:07:37.296Z,7.87
2019-01-17T10:10:07.171Z,9.37
2019-01-17T10:12:33.508Z,10.13
2019-01-17T10:14:59.551Z,8.50
2019-01-17T10:17:29.412Z,7.13
2019-01-17T10:20:11.172Z,5.70
2019-01-17T10:23:02.576Z,5.30
2019-01-17T10:25:47.447Z,5.77
2019-01-17T10:28:20.063Z,5.20
2019-01-17T10:30:59.507Z,5.07
2019-01-17T10:33:32.359Z,5.53
2019-01-17T10:36:25.309Z,4.67
2019-01-17T10:38:59.067Z,4.37
2019-01-17T10:41:28.948Z,3.90
2019-01-17T10:44:01.952Z,4.53
2019-01-17T10:46:44.147Z,3.87
2019-01-17T10:49:20.263Z,4.00
2019-01-17T10:52:10.547Z,3.13
2019-01-17T10:54:40.411Z,2.90
2019-01-17T10:57:16.063Z,3.20
2019-01-17T10:59:51.964Z,2.43
2019-01-17T11:02:42.773Z,2.40
2019-01-17T11:05:24.643Z,2.20
2019-01-17T11:08:06.847Z,2.10
2019-01-17T11:10:59.656Z,2.00
2019-01-17T11:13:32.808Z,2.33
2019-01-17T11:16:08.955Z,2.57
2019-01-17T11:19:01.467Z,2.40
2019-01-17T11:21:40.592Z,2.53
2019-01-17T11:24:10.456Z,3.00
2019-01-17T11:26:59.971Z,3.03
2019-01-17T11:29:29.831Z,3.37
2019-01-17T11:32:21.360Z,3.53
2019-01-17T11:35:09.057Z,3.30
2019-01-17T11:37:44.671Z,3.37
2019-01-17T11:40:33.132Z,3.30
2019-01-17T11:43:02.967Z,3.47
2019-01-17T11:45:35.875Z,3.47
2019-01-17T11:48:14.872Z,3.93
2019-01-17T11:50:53.037Z,4.37
2019-01-17T11:53:38.259Z,4.43
2019-01-17T11:56:11.183Z,4.80
2019-01-17T11:58:50.283Z,5.23
2019-01-17T12:01:23.803Z,4.50
2019-01-17T12:04:02.412Z,4.17
2019-01-17T12:06:28.756Z,3.67
2019-01-17T12:08:54.793Z,3.97
2019-01-17T12:11:21.113Z,3.40
2019-01-17T12:13:47.174Z,3.67
2019-01-17T12:16:13.200Z,3.30
2019-01-17T12:18:39.236Z,3.50
2019-01-17T12:21:05.611Z,3.70
2019-01-17T12:23:31.661Z,3.60
2019-01-17T12:25:57.694Z,3.20
2019-01-17T12:28:23.758Z,3.70
2019-01-17T12:30:49.795Z,3.60
2019-01-17T12:33:15.837Z,3.27
2019-01-17T12:35:41.889Z,3.40
2019-01-17T12:38:07.944Z,3.60
2019-01-17T12:40:33.987Z,3.10
2019-01-17T12:43:00.025Z,3.90
2019-01-17T12:45:26.120Z,2.80
2019-01-17T12:47:52.175Z,3.07
2019-01-17T12:50:18.502Z,3.10
2019-01-17T12:52:44.574Z,2.53
2019-01-17T12:55:11.107Z,2.67
2019-01-17T12:57:37.143Z,2.50
2019-01-17T13:00:10.009Z,2.17
2019-01-17T13:02:36.049Z,2.30
2019-01-17T13:05:03.092Z,2.10
2019-01-17T13:07:29.159Z,2.70
2019-01-17T13:09:55.198Z,2.30
2019-01-17T13:12:21.238Z,2.03
2019-01-17T13:14:47.291Z,2.30
2019-01-17T13:17:13.435Z,2.00
2019-01-17T13:19:40.899Z,2.27
2019-01-17T13:22:07.239Z,2.00
2019-01-17T13:24:33.281Z,1.97
2019-01-17T13:27:00.913Z,2.00
2019-01-17T13:29:27.574Z,2.47
2019-01-17T13:31:53.619Z,2.60
2019-01-17T13:34:19.661Z,1.90
2019-01-17T13:36:45.704Z,2.40
2019-01-17T13:39:11.755Z,2.30
2019-01-17T13:41:37.900Z,1.60
2019-01-17T13:44:04.053Z,1.50
2019-01-17T13:46:30.466Z,1.70
2019-01-17T13:48:56.516Z,1.63
2019-01-17T13:51:22.560Z,1.50
2019-01-17T13:53:48.624Z,1.90
2019-01-17T13:56:14.948Z,1.70
2019-01-17T13:58:41.012Z,1.50
2019-01-17T14:01:07.044Z,1.80
2019-01-17T14:03:33.174Z,1.90
2019-01-17T14:05:59.228Z,1.73
2019-01-17T14:08:25.271Z,1.87
2019-01-17T14:10:51.324Z,2.20
2019-01-17T14:13:17.828Z,2.20
2019-01-17T14:15:43.867Z,2.00
2019-01-17T14:18:09.908Z,2.20
2019-01-17T14:20:36.309Z,2.50
2019-01-17T14:23:02.675Z,3.47
2019-01-17T14:25:28.716Z,3.07
2019-01-17T14:27:54.771Z,2.60
2019-01-17T14:30:25.436Z,2.50
2019-01-17T14:32:51.517Z,2.50
2019-01-17T14:35:17.627Z,2.30
2019-01-17T14:37:43.669Z,2.70
2019-01-17T14:40:09.723Z,2.63
2019-01-17T14:42:35.958Z,2.57
2019-01-17T14:45:05.241Z,2.40
2019-01-17T14:47:31.278Z,2.30
2019-01-17T14:49:57.592Z,3.00
2019-01-17T14:52:23.628Z,2.60
2019-01-17T14:54:49.679Z,2.73
2019-01-17T14:57:20.567Z,3.40
2019-01-17T14:59:43.786Z,2.50
2019-01-17T15:02:09.828Z,2.60
2019-01-17T15:04:35.933Z,2.50
2019-01-17T15:07:01.979Z,2.20
2019-01-17T15:09:28.029Z,2.40
2019-01-17T15:11:54.079Z,3.10
2019-01-17T15:14:20.115Z,2.87
2019-01-17T15:16:46.512Z,2.30
2019-01-17T15:19:12.549Z,4.70
2019-01-17T15:21:38.596Z,2.80
2019-01-17T15:24:04.648Z,3.10
2019-01-17T15:26:30.691Z,2.67
2019-01-17T15:28:57.030Z,2.43
2019-01-17T15:31:23.085Z,2.63
2019-01-17T15:33:49.124Z,2.40
2019-01-17T15:36:15.290Z,2.37
2019-01-17T15:38:41.355Z,2.50
2019-01-17T15:41:07.399Z,2.47
2019-01-17T15:43:33.484Z,2.23
2019-01-17T15:45:59.544Z,2.13
2019-01-17T15:48:25.966Z,2.30
2019-01-17T15:50:52.376Z,2.27
2019-01-17T15:53:18.696Z,2.40
2019-01-17T15:55:44.762Z,1.77
2019-01-17T15:58:11.151Z,1.90
2019-01-17T16:00:37.194Z,1.67
2019-01-17T16:03:03.235Z,1.83
2019-01-17T16:05:29.289Z,1.97
2019-01-17T16:07:55.339Z,1.90
2019-01-17T16:10:21.416Z,2.03
2019-01-17T16:12:47.506Z,2.23
2019-01-17T16:15:16.055Z,2.13
2019-01-17T16:17:42.412Z,2.40
2019-01-17T16:20:11.168Z,2.37
2019-01-17T16:22:37.528Z,2.60
2019-01-17T16:25:06.971Z,2.77
2019-01-17T16:27:34.805Z,2.50
2019-01-17T16:30:03.403Z,2.63
2019-01-17T16:32:29.457Z,3.47
2019-01-17T16:34:55.499Z,2.90
2019-01-17T16:37:21.556Z,3.00
2019-01-17T16:39:47.886Z,2.73
2019-01-17T16:42:13.921Z,2.50
2019-01-17T16:44:39.960Z,2.43
2019-01-17T16:47:06.363Z,2.57
2019-01-17T16:49:32.707Z,3.33
2019-01-17T16:52:12.123Z,2.60
2019-01-17T16:54:38.200Z,2.67
2019-01-17T16:57:04.353Z,3.10
2019-01-17T16:59:30.388Z,3.13
2019-01-17T17:01:56.736Z,3.30
2019-01-17T17:04:22.793Z,3.40
2019-01-17T17:06:48.829Z,3.83
2019-01-17T17:09:14.879Z,3.77
2019-01-17T17:11:40.932Z,3.27
2019-01-17T17:14:06.975Z,3.60
2019-01-17T17:16:33.037Z,3.47
2019-01-17T17:18:59.082Z,3.47
2019-01-17T17:21:25.449Z,4.20
2019-01-17T17:23:51.508Z,3.27
2019-01-17T17:26:17.544Z,3.27
2019-01-17T17:28:49.745Z,3.40
2019-01-17T17:31:15.801Z,3.23
2019-01-17T17:33:41.839Z,4.77
2019-01-17T17:36:07.889Z,4.07
2019-01-17T17:38:33.961Z,4.40
2019-01-17T17:41:00.374Z,4.70
2019-01-17T17:43:26.415Z,3.70
2019-01-17T17:45:52.463Z,3.50
2019-01-17T17:48:18.505Z,3.43
2019-01-17T17:50:44.621Z,3.73
2019-01-17T17:53:10.655Z,4.17
2019-01-17T17:55:36.702Z,3.60
2019-01-17T17:58:03.260Z,4.13
2019-01-17T18:00:47.850Z,4.80
2019-01-17T18:03:13.946Z,4.77
2019-01-17T18:05:40.000Z,5.00
2019-01-17T18:08:06.155Z,4.33
2019-01-17T18:10:32.195Z,4.67
2019-01-17T18:12:58.247Z,5.40
2019-01-17T18:15:24.291Z,5.47
2019-01-17T18:17:50.333Z,5.30
2019-01-17T18:20:16.995Z,5.50
2019-01-17T18:22:43.039Z,5.60
2019-01-17T18:25:09.879Z,5.70
2019-01-17T18:27:35.936Z,5.90
2019-01-17T18:30:05.784Z,6.03
2019-01-17T18:32:31.819Z,5.80
2019-01-17T18:34:57.871Z,6.10
2019-01-17T18:37:24.027Z,5.47
2019-01-17T18:39:50.280Z,6.13
2019-01-17T18:42:16.331Z,6.47
2019-01-17T18:44:42.579Z,6.27
2019-01-17T18:47:08.619Z,6.47
2019-01-17T18:49:35.024Z,6.37
2019-01-17T18:52:01.071Z,7.27
2019-01-17T18:54:27.107Z,7.57
2019-01-17T18:56:53.160Z,7.60
2019-01-17T18:59:19.528Z,7.80
2019-01-17T19:01:45.695Z,9.83
2019-01-17T19:04:11.728Z,7.57
2019-01-17T19:06:37.768Z,7.70
2019-01-17T19:09:05.844Z,7.50
2019-01-17T19:11:31.884Z,8.23
2019-01-17T19:13:57.919Z,6.93
2019-01-17T19:16:23.983Z,7.70
2019-01-17T19:18:50.031Z,7.03
2019-01-17T19:21:16.073Z,7.97
2019-01-17T19:23:42.428Z,6.83
2019-01-17T19:26:08.467Z,6.63
2019-01-17T19:28:34.775Z,6.37
2019-01-17T19:31:00.823Z,6.03
2019-01-17T19:33:26.887Z,6.53
2019-01-17T19:35:52.940Z,5.57
2019-01-17T19:38:18.987Z,5.37
2019-01-17T19:40:45.031Z,4.87
2019-01-17T19:43:11.177Z,4.77
2019-01-17T19:45:37.855Z,4.00
2019-01-17T19:48:04.292Z,4.20
2019-01-17T19:50:32.845Z,3.63
2019-01-17T19:52:58.895Z,3.87
2019-01-17T19:55:24.944Z,3.70
2019-01-17T19:57:51.184Z,2.80
2019-01-17T20:00:19.074Z,3.77
2019-01-17T20:02:45.552Z,3.10
2019-01-17T20:05:14.702Z,2.80
2019-01-17T20:07:40.963Z,2.67
2019-01-17T20:10:10.816Z,3.00
2019-01-17T20:12:36.839Z,2.60
2019-01-17T20:15:05.004Z,2.80
2019-01-17T20:17:31.040Z,3.03
2019-01-17T20:19:57.089Z,2.27
2019-01-17T20:22:23.248Z,2.50
2019-01-17T20:24:49.296Z,2.43
2019-01-17T20:27:15.356Z,2.40
2019-01-17T20:29:41.420Z,2.70
2019-01-17T20:32:07.463Z,2.20
2019-01-17T20:34:33.515Z,2.23
2019-01-17T20:36:59.558Z,2.40
2019-01-17T20:39:25.617Z,2.47
2019-01-17T20:41:51.764Z,2.50
2019-01-17T20:44:17.813Z,2.53
2019-01-17T20:46:43.875Z,2.73
2019-01-17T20:49:09.919Z,2.50
2019-01-17T20:51:35.959Z,2.43
2019-01-17T20:54:02.023Z,2.73
2019-01-17T20:56:28.404Z,2.67
2019-01-17T20:58:54.470Z,2.90
2019-01-17T21:01:29.959Z,2.60
2019-01-17T21:03:56.001Z,3.03
2019-01-17T21:06:22.161Z,2.43
2019-01-17T21:08:48.224Z,2.90
2019-01-17T21:11:14.366Z,1.90
2019-01-17T21:13:40.428Z,2.37
2019-01-17T21:16:06.471Z,2.47
2019-01-17T21:18:32.511Z,2.27
2019-01-17T21:20:58.575Z,2.17
2019-01-17T21:23:24.612Z,1.90
2019-01-17T21:25:50.657Z,2.30
2019-01-17T21:28:17.039Z,2.20
2019-01-17T21:30:43.079Z,2.10
2019-01-17T21:33:09.121Z,2.30
2019-01-17T21:35:35.171Z,2.53
2019-01-17T21:38:01.211Z,2.80
2019-01-17T21:40:27.279Z,2.60
2019-01-17T21:42:53.328Z,2.40
2019-01-17T21:45:19.479Z,2.43
2019-01-17T21:47:45.723Z,2.83
2019-01-17T21:50:26.789Z,2.50
2019-01-17T21:52:52.937Z,2.70
2019-01-17T21:55:19.270Z,2.87
2019-01-17T21:57:45.323Z,2.70
2019-01-17T22:00:17.453Z,3.17
2019-01-17T22:02:43.499Z,3.17
2019-01-17T22:05:09.984Z,3.23
2019-01-17T22:07:36.123Z,3.13
2019-01-17T22:10:05.440Z,3.57
2019-01-17T22:12:31.483Z,4.00
2019-01-17T22:14:57.528Z,3.53
2019-01-17T22:17:23.579Z,3.40
2019-01-17T22:19:49.619Z,3.47
2019-01-17T22:22:15.672Z,3.93
2019-01-17T22:24:41.737Z,3.70
2019-01-17T22:27:08.111Z,3.87
2019-01-17T22:29:34.164Z,4.10
2019-01-17T22:32:00.203Z,3.87
2019-01-17T22:34:26.272Z,4.37
2019-01-17T22:36:52.310Z,3.87
2019-01-17T22:39:18.349Z,4.47
2019-01-17T22:41:44.413Z,4.10
2019-01-17T22:44:10.662Z,4.43
2019-01-17T22:46:36.691Z,4.10
2019-01-17T22:49:02.839Z,4.80
2019-01-17T22:51:29.163Z,4.60
2019-01-17T22:53:55.216Z,4.80
2019-01-17T22:56:21.259Z,4.87
2019-01-17T22:58:47.310Z,5.17
2019-01-17T23:01:15.272Z,5.20
2019-01-17T23:03:41.341Z,4.83
2019-01-17T23:06:07.389Z,4.60
2019-01-17T23:08:33.435Z,4.93
2019-01-17T23:10:59.479Z,5.13
2019-01-17T23:13:25.540Z,5.33
2019-01-17T23:15:51.587Z,4.80
2019-01-17T23:18:17.650Z,4.93
2019-01-17T23:20:43.700Z,4.53
2019-01-17T23:23:09.983Z,4.90
2019-01-17T23:25:36.048Z,4.67
2019-01-17T23:28:02.099Z,4.83
2019-01-17T23:30:28.143Z,4.87
2019-01-17T23:32:54.187Z,4.50
2019-01-17T23:35:20.248Z,5.03
2019-01-17T23:37:46.297Z,4.50
2019-01-17T23:40:14.458Z,4.60
2019-01-17T23:42:40.526Z,4.37
2019-01-17T23:45:07.471Z,4.47
2019-01-17T23:47:33.719Z,5.17
2019-01-17T23:49:59.782Z,4.13
2019-01-17T23:52:26.191Z,4.57
2019-01-17T23:54:52.521Z,5.03
2019-01-17T23:57:18.585Z,4.20
2019-01-17T23:59:44.643Z,4.57
